sensor_id;sensor_type;location;lat;lon;timestamp;P1;durP1;ratioP1;P2;durP2;ratioP2
24357;SDS011;13668;52.154;5.580;2023-09-07T00:01:44;4.72;;;4.32;;
24357;SDS011;13668;52.154;5.580;2023-09-07T00:04:10;5.35;;;4.75;;
24357;SDS011;13668;52.154;5.580;2023-09-07T00:06:37;4.88;;;4.35;;
24357;SDS011;13668;52.154;5.580;2023-09-07T00:09:03;6.43;;;5.30;;
24357;SDS011;13668;52.154;5.580;2023-09-07T00:11:30;5.43;;;4.93;;
24357;SDS011;13668;52.154;5.580;2023-09-07T00:13:56;5.60;;;4.75;;
24357;SDS011;13668;52.154;5.580;2023-09-07T00:16:24;5.25;;;4.47;;
24357;SDS011;13668;52.154;5.580;2023-09-07T00:18:50;5.20;;;4.70;;
24357;SDS011;13668;52.154;5.580;2023-09-07T00:21:16;5.10;;;4.60;;
24357;SDS011;13668;52.154;5.580;2023-09-07T00:23:42;7.40;;;5.43;;
24357;SDS011;13668;52.154;5.580;2023-09-07T00:26:08;6.45;;;4.75;;
24357;SDS011;13668;52.154;5.580;2023-09-07T00:28:35;5.28;;;4.78;;
24357;SDS011;13668;52.154;5.580;2023-09-07T00:31:01;4.90;;;4.50;;
24357;SDS011;13668;52.154;5.580;2023-09-07T00:33:27;4.57;;;3.97;;
24357;SDS011;13668;52.154;5.580;2023-09-07T00:35:53;5.65;;;4.45;;
24357;SDS011;13668;52.154;5.580;2023-09-07T00:38:19;6.43;;;4.95;;
24357;SDS011;13668;52.154;5.580;2023-09-07T00:40:45;4.53;;;4.13;;
24357;SDS011;13668;52.154;5.580;2023-09-07T00:43:11;4.40;;;4.00;;
24357;SDS011;13668;52.154;5.580;2023-09-07T00:45:38;4.18;;;3.78;;
24357;SDS011;13668;52.154;5.580;2023-09-07T00:48:04;5.22;;;4.13;;
24357;SDS011;13668;52.154;5.580;2023-09-07T00:50:31;5.80;;;4.65;;
24357;SDS011;13668;52.154;5.580;2023-09-07T00:52:57;5.22;;;3.90;;
24357;SDS011;13668;52.154;5.580;2023-09-07T00:55:23;5.30;;;4.28;;
24357;SDS011;13668;52.154;5.580;2023-09-07T00:57:49;4.85;;;4.35;;
24357;SDS011;13668;52.154;5.580;2023-09-07T01:00:15;4.78;;;4.30;;
24357;SDS011;13668;52.154;5.580;2023-09-07T01:02:41;5.05;;;4.20;;
24357;SDS011;13668;52.154;5.580;2023-09-07T01:05:09;4.35;;;3.83;;
24357;SDS011;13668;52.154;5.580;2023-09-07T01:07:37;5.50;;;4.90;;
24357;SDS011;13668;52.154;5.580;2023-09-07T01:10:05;6.05;;;4.78;;
24357;SDS011;13668;52.154;5.580;2023-09-07T01:12:32;4.38;;;3.97;;
24357;SDS011;13668;52.154;5.580;2023-09-07T01:14:58;5.85;;;5.10;;
24357;SDS011;13668;52.154;5.580;2023-09-07T01:17:24;4.93;;;4.38;;
24357;SDS011;13668;52.154;5.580;2023-09-07T01:19:51;5.50;;;4.85;;
24357;SDS011;13668;52.154;5.580;2023-09-07T01:22:19;6.40;;;4.70;;
24357;SDS011;13668;52.154;5.580;2023-09-07T01:24:47;6.55;;;4.75;;
24357;SDS011;13668;52.154;5.580;2023-09-07T01:27:14;5.97;;;5.00;;
24357;SDS011;13668;52.154;5.580;2023-09-07T01:29:40;5.15;;;4.43;;
24357;SDS011;13668;52.154;5.580;2023-09-07T01:32:06;7.15;;;5.28;;
24357;SDS011;13668;52.154;5.580;2023-09-07T01:34:34;4.97;;;4.47;;
24357;SDS011;13668;52.154;5.580;2023-09-07T01:37:00;5.25;;;4.75;;
24357;SDS011;13668;52.154;5.580;2023-09-07T01:39:26;5.20;;;4.70;;
24357;SDS011;13668;52.154;5.580;2023-09-07T01:41:52;5.68;;;4.72;;
24357;SDS011;13668;52.154;5.580;2023-09-07T01:44:19;4.82;;;4.40;;
24357;SDS011;13668;52.154;5.580;2023-09-07T01:46:45;5.57;;;4.38;;
24357;SDS011;13668;52.154;5.580;2023-09-07T01:49:11;7.25;;;5.22;;
24357;SDS011;13668;52.154;5.580;2023-09-07T01:51:37;6.93;;;5.28;;
24357;SDS011;13668;52.154;5.580;2023-09-07T01:54:03;7.22;;;5.13;;
24357;SDS011;13668;52.154;5.580;2023-09-07T01:56:30;6.30;;;5.22;;
24357;SDS011;13668;52.154;5.580;2023-09-07T01:58:56;5.70;;;5.10;;
24357;SDS011;13668;52.154;5.580;2023-09-07T02:03:48;5.28;;;4.72;;
24357;SDS011;13668;52.154;5.580;2023-09-07T02:06:14;6.97;;;5.38;;
24357;SDS011;13668;52.154;5.580;2023-09-07T02:08:40;5.28;;;4.75;;
24357;SDS011;13668;52.154;5.580;2023-09-07T02:11:06;5.45;;;4.75;;
24357;SDS011;13668;52.154;5.580;2023-09-07T02:13:32;6.85;;;5.28;;
24357;SDS011;13668;52.154;5.580;2023-09-07T02:15:58;7.38;;;5.03;;
24357;SDS011;13668;52.154;5.580;2023-09-07T02:18:24;5.65;;;4.35;;
24357;SDS011;13668;52.154;5.580;2023-09-07T02:20:50;5.88;;;4.95;;
24357;SDS011;13668;52.154;5.580;2023-09-07T02:23:16;5.65;;;4.53;;
24357;SDS011;13668;52.154;5.580;2023-09-07T02:25:42;4.63;;;4.18;;
24357;SDS011;13668;52.154;5.580;2023-09-07T02:28:08;5.78;;;5.13;;
24357;SDS011;13668;52.154;5.580;2023-09-07T02:30:34;4.10;;;3.70;;
24357;SDS011;13668;52.154;5.580;2023-09-07T02:33:00;5.05;;;4.03;;
24357;SDS011;13668;52.154;5.580;2023-09-07T02:35:26;6.07;;;4.35;;
24357;SDS011;13668;52.154;5.580;2023-09-07T02:37:52;5.22;;;4.28;;
24357;SDS011;13668;52.154;5.580;2023-09-07T02:40:18;4.35;;;3.53;;
24357;SDS011;13668;52.154;5.580;2023-09-07T02:42:44;4.97;;;4.15;;
24357;SDS011;13668;52.154;5.580;2023-09-07T02:45:10;4.97;;;3.50;;
24357;SDS011;13668;52.154;5.580;2023-09-07T02:47:37;4.43;;;4.00;;
24357;SDS011;13668;52.154;5.580;2023-09-07T02:50:03;4.18;;;3.78;;
24357;SDS011;13668;52.154;5.580;2023-09-07T02:52:30;4.97;;;3.88;;
24357;SDS011;13668;52.154;5.580;2023-09-07T02:54:56;4.68;;;3.92;;
24357;SDS011;13668;52.154;5.580;2023-09-07T02:57:22;5.63;;;3.58;;
24357;SDS011;13668;52.154;5.580;2023-09-07T02:59:48;3.80;;;3.50;;
24357;SDS011;13668;52.154;5.580;2023-09-07T03:02:14;3.85;;;3.42;;
24357;SDS011;13668;52.154;5.580;2023-09-07T03:04:40;5.82;;;3.92;;
24357;SDS011;13668;52.154;5.580;2023-09-07T03:07:06;4.65;;;4.22;;
24357;SDS011;13668;52.154;5.580;2023-09-07T03:09:32;5.53;;;4.07;;
24357;SDS011;13668;52.154;5.580;2023-09-07T03:11:58;4.20;;;3.78;;
24357;SDS011;13668;52.154;5.580;2023-09-07T03:14:24;4.60;;;4.18;;
24357;SDS011;13668;52.154;5.580;2023-09-07T03:16:50;5.55;;;4.18;;
24357;SDS011;13668;52.154;5.580;2023-09-07T03:19:16;5.63;;;3.90;;
24357;SDS011;13668;52.154;5.580;2023-09-07T03:21:42;8.27;;;3.72;;
24357;SDS011;13668;52.154;5.580;2023-09-07T03:24:08;5.63;;;4.07;;
24357;SDS011;13668;52.154;5.580;2023-09-07T03:26:34;5.32;;;4.05;;
24357;SDS011;13668;52.154;5.580;2023-09-07T03:29:00;4.25;;;3.85;;
24357;SDS011;13668;52.154;5.580;2023-09-07T03:31:26;4.90;;;4.40;;
24357;SDS011;13668;52.154;5.580;2023-09-07T03:33:52;5.03;;;4.55;;
24357;SDS011;13668;52.154;5.580;2023-09-07T03:36:18;6.70;;;4.10;;
24357;SDS011;13668;52.154;5.580;2023-09-07T03:38:44;5.18;;;4.38;;
24357;SDS011;13668;52.154;5.580;2023-09-07T03:41:09;4.30;;;3.90;;
24357;SDS011;13668;52.154;5.580;2023-09-07T03:43:35;4.90;;;4.05;;
24357;SDS011;13668;52.154;5.580;2023-09-07T03:46:01;4.90;;;4.10;;
24357;SDS011;13668;52.154;5.580;2023-09-07T03:48:27;4.07;;;3.55;;
24357;SDS011;13668;52.154;5.580;2023-09-07T03:50:53;4.63;;;3.92;;
24357;SDS011;13668;52.154;5.580;2023-09-07T03:53:19;4.47;;;3.83;;
24357;SDS011;13668;52.154;5.580;2023-09-07T03:55:45;5.72;;;4.43;;
24357;SDS011;13668;52.154;5.580;2023-09-07T03:58:11;5.05;;;4.40;;
24357;SDS011;13668;52.154;5.580;2023-09-07T04:00:38;5.05;;;3.80;;
24357;SDS011;13668;52.154;5.580;2023-09-07T04:03:05;4.30;;;3.85;;
24357;SDS011;13668;52.154;5.580;2023-09-07T04:05:31;5.65;;;4.63;;
24357;SDS011;13668;52.154;5.580;2023-09-07T04:07:57;5.60;;;4.32;;
24357;SDS011;13668;52.154;5.580;2023-09-07T04:10:24;4.82;;;4.32;;
24357;SDS011;13668;52.154;5.580;2023-09-07T04:12:50;5.97;;;3.83;;
24357;SDS011;13668;52.154;5.580;2023-09-07T04:15:16;6.45;;;4.32;;
24357;SDS011;13668;52.154;5.580;2023-09-07T04:17:42;5.10;;;4.05;;
24357;SDS011;13668;52.154;5.580;2023-09-07T04:20:08;4.80;;;4.05;;
24357;SDS011;13668;52.154;5.580;2023-09-07T04:22:36;4.40;;;4.00;;
24357;SDS011;13668;52.154;5.580;2023-09-07T04:25:02;5.30;;;4.28;;
24357;SDS011;13668;52.154;5.580;2023-09-07T04:27:28;6.10;;;4.40;;
24357;SDS011;13668;52.154;5.580;2023-09-07T04:29:55;6.75;;;4.68;;
24357;SDS011;13668;52.154;5.580;2023-09-07T04:32:21;5.65;;;4.75;;
24357;SDS011;13668;52.154;5.580;2023-09-07T04:34:52;5.05;;;4.55;;
24357;SDS011;13668;52.154;5.580;2023-09-07T04:37:18;5.13;;;4.28;;
24357;SDS011;13668;52.154;5.580;2023-09-07T04:39:44;4.63;;;4.10;;
24357;SDS011;13668;52.154;5.580;2023-09-07T04:42:10;4.88;;;4.28;;
24357;SDS011;13668;52.154;5.580;2023-09-07T04:44:36;5.32;;;4.60;;
24357;SDS011;13668;52.154;5.580;2023-09-07T04:47:02;6.18;;;5.05;;
24357;SDS011;13668;52.154;5.580;2023-09-07T04:49:29;6.78;;;4.53;;
24357;SDS011;13668;52.154;5.580;2023-09-07T04:51:56;6.03;;;4.65;;
24357;SDS011;13668;52.154;5.580;2023-09-07T04:54:22;6.80;;;4.45;;
24357;SDS011;13668;52.154;5.580;2023-09-07T04:56:48;5.88;;;4.78;;
24357;SDS011;13668;52.154;5.580;2023-09-07T04:59:14;8.85;;;4.55;;
24357;SDS011;13668;52.154;5.580;2023-09-07T05:01:40;6.43;;;4.78;;
24357;SDS011;13668;52.154;5.580;2023-09-07T05:04:06;6.47;;;4.75;;
24357;SDS011;13668;52.154;5.580;2023-09-07T05:06:32;5.97;;;4.65;;
24357;SDS011;13668;52.154;5.580;2023-09-07T05:09:03;5.43;;;4.57;;
24357;SDS011;13668;52.154;5.580;2023-09-07T05:11:29;5.28;;;4.65;;
24357;SDS011;13668;52.154;5.580;2023-09-07T05:13:55;4.97;;;4.50;;
24357;SDS011;13668;52.154;5.580;2023-09-07T05:16:21;7.90;;;4.60;;
24357;SDS011;13668;52.154;5.580;2023-09-07T05:18:47;7.05;;;4.55;;
24357;SDS011;13668;52.154;5.580;2023-09-07T05:21:13;4.50;;;4.10;;
24357;SDS011;13668;52.154;5.580;2023-09-07T05:23:40;7.22;;;4.50;;
24357;SDS011;13668;52.154;5.580;2023-09-07T05:26:06;5.03;;;4.38;;
24357;SDS011;13668;52.154;5.580;2023-09-07T05:28:32;5.40;;;4.63;;
24357;SDS011;13668;52.154;5.580;2023-09-07T05:30:58;5.55;;;4.25;;
24357;SDS011;13668;52.154;5.580;2023-09-07T05:33:24;5.90;;;5.00;;
24357;SDS011;13668;52.154;5.580;2023-09-07T05:35:50;5.05;;;4.40;;
24357;SDS011;13668;52.154;5.580;2023-09-07T05:38:16;5.10;;;4.43;;
24357;SDS011;13668;52.154;5.580;2023-09-07T05:40:42;6.20;;;5.10;;
24357;SDS011;13668;52.154;5.580;2023-09-07T05:43:09;7.32;;;4.97;;
24357;SDS011;13668;52.154;5.580;2023-09-07T05:45:38;5.82;;;4.60;;
24357;SDS011;13668;52.154;5.580;2023-09-07T05:48:04;6.38;;;4.50;;
24357;SDS011;13668;52.154;5.580;2023-09-07T05:50:34;6.22;;;4.70;;
24357;SDS011;13668;52.154;5.580;2023-09-07T05:53:01;6.30;;;4.82;;
24357;SDS011;13668;52.154;5.580;2023-09-07T05:55:27;5.32;;;4.70;;
24357;SDS011;13668;52.154;5.580;2023-09-07T05:57:56;5.97;;;5.13;;
24357;SDS011;13668;52.154;5.580;2023-09-07T06:00:22;6.50;;;5.05;;
24357;SDS011;13668;52.154;5.580;2023-09-07T06:02:48;8.85;;;5.15;;
24357;SDS011;13668;52.154;5.580;2023-09-07T06:05:14;7.55;;;5.32;;
24357;SDS011;13668;52.154;5.580;2023-09-07T06:07:41;7.20;;;5.45;;
24357;SDS011;13668;52.154;5.580;2023-09-07T06:10:07;8.60;;;5.25;;
24357;SDS011;13668;52.154;5.580;2023-09-07T06:12:33;6.95;;;5.30;;
24357;SDS011;13668;52.154;5.580;2023-09-07T06:14:59;7.05;;;6.00;;
24357;SDS011;13668;52.154;5.580;2023-09-07T06:17:26;9.20;;;6.22;;
24357;SDS011;13668;52.154;5.580;2023-09-07T06:19:52;10.27;;;6.13;;
24357;SDS011;13668;52.154;5.580;2023-09-07T06:22:18;8.38;;;6.28;;
24357;SDS011;13668;52.154;5.580;2023-09-07T06:24:44;8.75;;;6.88;;
24357;SDS011;13668;52.154;5.580;2023-09-07T06:27:10;11.98;;;5.88;;
24357;SDS011;13668;52.154;5.580;2023-09-07T06:29:36;8.52;;;6.10;;
24357;SDS011;13668;52.154;5.580;2023-09-07T06:32:02;8.10;;;6.05;;
24357;SDS011;13668;52.154;5.580;2023-09-07T06:34:28;7.40;;;5.80;;
24357;SDS011;13668;52.154;5.580;2023-09-07T06:36:54;7.97;;;5.95;;
24357;SDS011;13668;52.154;5.580;2023-09-07T06:39:19;6.97;;;5.25;;
24357;SDS011;13668;52.154;5.580;2023-09-07T06:41:46;10.30;;;6.40;;
24357;SDS011;13668;52.154;5.580;2023-09-07T06:44:12;10.15;;;6.40;;
24357;SDS011;13668;52.154;5.580;2023-09-07T06:46:38;6.65;;;5.70;;
24357;SDS011;13668;52.154;5.580;2023-09-07T06:49:04;7.80;;;6.20;;
24357;SDS011;13668;52.154;5.580;2023-09-07T06:51:31;8.80;;;6.47;;
24357;SDS011;13668;52.154;5.580;2023-09-07T06:53:57;6.88;;;5.60;;
24357;SDS011;13668;52.154;5.580;2023-09-07T06:56:23;8.27;;;5.88;;
24357;SDS011;13668;52.154;5.580;2023-09-07T06:58:49;8.48;;;5.82;;
24357;SDS011;13668;52.154;5.580;2023-09-07T07:01:15;6.28;;;5.68;;
24357;SDS011;13668;52.154;5.580;2023-09-07T07:03:41;6.32;;;4.90;;
24357;SDS011;13668;52.154;5.580;2023-09-07T07:06:07;5.97;;;5.07;;
24357;SDS011;13668;52.154;5.580;2023-09-07T07:08:33;6.47;;;4.88;;
24357;SDS011;13668;52.154;5.580;2023-09-07T07:10:59;8.38;;;5.50;;
24357;SDS011;13668;52.154;5.580;2023-09-07T07:13:25;5.22;;;4.38;;
24357;SDS011;13668;52.154;5.580;2023-09-07T07:15:51;6.15;;;5.03;;
24357;SDS011;13668;52.154;5.580;2023-09-07T07:18:17;4.85;;;3.80;;
24357;SDS011;13668;52.154;5.580;2023-09-07T07:20:44;4.95;;;4.28;;
24357;SDS011;13668;52.154;5.580;2023-09-07T07:23:10;5.22;;;4.00;;
24357;SDS011;13668;52.154;5.580;2023-09-07T07:25:37;4.63;;;3.75;;
24357;SDS011;13668;52.154;5.580;2023-09-07T07:28:04;4.70;;;3.63;;
24357;SDS011;13668;52.154;5.580;2023-09-07T07:30:31;4.05;;;3.65;;
24357;SDS011;13668;52.154;5.580;2023-09-07T07:32:57;4.18;;;3.78;;
24357;SDS011;13668;52.154;5.580;2023-09-07T07:35:23;4.78;;;3.92;;
24357;SDS011;13668;52.154;5.580;2023-09-07T07:37:49;4.38;;;3.88;;
24357;SDS011;13668;52.154;5.580;2023-09-07T07:40:16;5.50;;;4.47;;
24357;SDS011;13668;52.154;5.580;2023-09-07T07:42:43;5.07;;;4.57;;
24357;SDS011;13668;52.154;5.580;2023-09-07T07:45:09;4.88;;;4.38;;
24357;SDS011;13668;52.154;5.580;2023-09-07T07:47:35;6.72;;;4.50;;
24357;SDS011;13668;52.154;5.580;2023-09-07T07:50:01;4.85;;;4.32;;
24357;SDS011;13668;52.154;5.580;2023-09-07T07:52:27;4.70;;;4.18;;
24357;SDS011;13668;52.154;5.580;2023-09-07T07:54:54;6.28;;;4.78;;
24357;SDS011;13668;52.154;5.580;2023-09-07T07:57:20;5.68;;;4.60;;
24357;SDS011;13668;52.154;5.580;2023-09-07T07:59:46;5.18;;;4.70;;
24357;SDS011;13668;52.154;5.580;2023-09-07T08:02:12;5.30;;;4.80;;
24357;SDS011;13668;52.154;5.580;2023-09-07T08:04:38;4.90;;;4.25;;
24357;SDS011;13668;52.154;5.580;2023-09-07T08:07:04;5.32;;;4.60;;
24357;SDS011;13668;52.154;5.580;2023-09-07T08:09:32;5.22;;;4.72;;
24357;SDS011;13668;52.154;5.580;2023-09-07T08:11:58;5.18;;;4.60;;
24357;SDS011;13668;52.154;5.580;2023-09-07T08:14:27;6.03;;;4.00;;
24357;SDS011;13668;52.154;5.580;2023-09-07T08:16:54;6.03;;;4.90;;
24357;SDS011;13668;52.154;5.580;2023-09-07T08:19:20;5.88;;;5.20;;
24357;SDS011;13668;52.154;5.580;2023-09-07T08:21:46;5.82;;;5.22;;
24357;SDS011;13668;52.154;5.580;2023-09-07T08:24:12;6.28;;;4.05;;
24357;SDS011;13668;52.154;5.580;2023-09-07T08:26:38;5.78;;;5.13;;
24357;SDS011;13668;52.154;5.580;2023-09-07T08:29:05;6.03;;;4.50;;
24357;SDS011;13668;52.154;5.580;2023-09-07T08:31:32;5.55;;;4.50;;
24357;SDS011;13668;52.154;5.580;2023-09-07T08:34:01;5.75;;;3.97;;
24357;SDS011;13668;52.154;5.580;2023-09-07T08:36:28;5.15;;;4.10;;
24357;SDS011;13668;52.154;5.580;2023-09-07T08:38:57;5.47;;;4.22;;
24357;SDS011;13668;52.154;5.580;2023-09-07T08:41:26;5.57;;;4.22;;
24357;SDS011;13668;52.154;5.580;2023-09-07T08:43:52;4.53;;;3.97;;
24357;SDS011;13668;52.154;5.580;2023-09-07T08:46:19;4.95;;;3.63;;
24357;SDS011;13668;52.154;5.580;2023-09-07T08:48:46;4.05;;;3.65;;
24357;SDS011;13668;52.154;5.580;2023-09-07T08:51:12;4.05;;;3.65;;
24357;SDS011;13668;52.154;5.580;2023-09-07T08:53:40;4.03;;;3.20;;
24357;SDS011;13668;52.154;5.580;2023-09-07T08:56:07;3.60;;;3.30;;
24357;SDS011;13668;52.154;5.580;2023-09-07T08:58:44;4.22;;;3.22;;
24357;SDS011;13668;52.154;5.580;2023-09-07T09:01:09;4.03;;;3.45;;
24357;SDS011;13668;52.154;5.580;2023-09-07T09:03:36;2.85;;;2.55;;
24357;SDS011;13668;52.154;5.580;2023-09-07T09:06:03;4.57;;;2.80;;
24357;SDS011;13668;52.154;5.580;2023-09-07T09:08:42;2.80;;;2.60;;
24357;SDS011;13668;52.154;5.580;2023-09-07T09:11:08;3.33;;;2.60;;
24357;SDS011;13668;52.154;5.580;2023-09-07T09:13:34;3.15;;;2.72;;
24357;SDS011;13668;52.154;5.580;2023-09-07T09:16:00;2.78;;;2.55;;
24357;SDS011;13668;52.154;5.580;2023-09-07T09:18:26;3.20;;;2.80;;
24357;SDS011;13668;52.154;5.580;2023-09-07T09:20:53;3.05;;;2.45;;
24357;SDS011;13668;52.154;5.580;2023-09-07T09:23:19;2.70;;;2.50;;
24357;SDS011;13668;52.154;5.580;2023-09-07T09:25:47;2.40;;;2.20;;
24357;SDS011;13668;52.154;5.580;2023-09-07T09:28:14;2.40;;;2.13;;
24357;SDS011;13668;52.154;5.580;2023-09-07T09:30:41;3.00;;;2.05;;
24357;SDS011;13668;52.154;5.580;2023-09-07T09:33:10;2.03;;;1.83;;
24357;SDS011;13668;52.154;5.580;2023-09-07T09:35:37;2.22;;;2.03;;
24357;SDS011;13668;52.154;5.580;2023-09-07T09:38:03;1.30;;;1.20;;
24357;SDS011;13668;52.154;5.580;2023-09-07T09:40:33;3.17;;;1.60;;
24357;SDS011;13668;52.154;5.580;2023-09-07T09:42:59;2.03;;;1.60;;
24357;SDS011;13668;52.154;5.580;2023-09-07T09:45:27;1.80;;;1.70;;
24357;SDS011;13668;52.154;5.580;2023-09-07T09:47:54;2.15;;;1.75;;
24357;SDS011;13668;52.154;5.580;2023-09-07T09:50:25;1.73;;;1.63;;
24357;SDS011;13668;52.154;5.580;2023-09-07T09:52:54;1.92;;;1.40;;
24357;SDS011;13668;52.154;5.580;2023-09-07T09:55:20;2.47;;;1.50;;
24357;SDS011;13668;52.154;5.580;2023-09-07T09:57:47;1.92;;;1.58;;
24357;SDS011;13668;52.154;5.580;2023-09-07T10:00:15;1.42;;;1.33;;
24357;SDS011;13668;52.154;5.580;2023-09-07T10:02:48;1.80;;;1.70;;
24357;SDS011;13668;52.154;5.580;2023-09-07T10:05:15;1.70;;;1.60;;
24357;SDS011;13668;52.154;5.580;2023-09-07T10:07:42;1.70;;;1.55;;
24357;SDS011;13668;52.154;5.580;2023-09-07T10:10:15;3.67;;;1.80;;
24357;SDS011;13668;52.154;5.580;2023-09-07T10:12:41;1.77;;;1.67;;
24357;SDS011;13668;52.154;5.580;2023-09-07T10:15:19;1.75;;;1.63;;
24357;SDS011;13668;52.154;5.580;2023-09-07T10:17:45;1.65;;;1.55;;
24357;SDS011;13668;52.154;5.580;2023-09-07T10:20:14;1.70;;;1.60;;
24357;SDS011;13668;52.154;5.580;2023-09-07T10:22:40;1.40;;;1.30;;
24357;SDS011;13668;52.154;5.580;2023-09-07T10:25:17;1.70;;;1.60;;
24357;SDS011;13668;52.154;5.580;2023-09-07T10:27:43;2.20;;;1.70;;
24357;SDS011;13668;52.154;5.580;2023-09-07T10:30:09;2.17;;;1.75;;
24357;SDS011;13668;52.154;5.580;2023-09-07T10:32:38;1.92;;;1.60;;
24357;SDS011;13668;52.154;5.580;2023-09-07T10:35:15;2.20;;;2.00;;
24357;SDS011;13668;52.154;5.580;2023-09-07T10:37:43;2.42;;;2.22;;
24357;SDS011;13668;52.154;5.580;2023-09-07T10:40:10;1.90;;;1.80;;
24357;SDS011;13668;52.154;5.580;2023-09-07T10:42:37;2.40;;;2.20;;
24357;SDS011;13668;52.154;5.580;2023-09-07T10:45:13;3.15;;;2.33;;
24357;SDS011;13668;52.154;5.580;2023-09-07T10:47:43;2.20;;;2.00;;
24357;SDS011;13668;52.154;5.580;2023-09-07T10:50:11;2.58;;;1.65;;
24357;SDS011;13668;52.154;5.580;2023-09-07T10:52:38;2.20;;;2.00;;
24357;SDS011;13668;52.154;5.580;2023-09-07T10:55:05;3.08;;;2.08;;
24357;SDS011;13668;52.154;5.580;2023-09-07T10:57:31;2.45;;;2.25;;
24357;SDS011;13668;52.154;5.580;2023-09-07T10:59:57;1.75;;;1.65;;
24357;SDS011;13668;52.154;5.580;2023-09-07T11:02:23;2.60;;;1.75;;
24357;SDS011;13668;52.154;5.580;2023-09-07T11:04:49;2.08;;;1.85;;
24357;SDS011;13668;52.154;5.580;2023-09-07T11:07:15;2.00;;;1.88;;
24357;SDS011;13668;52.154;5.580;2023-09-07T11:09:42;2.80;;;1.92;;
24357;SDS011;13668;52.154;5.580;2023-09-07T11:12:11;1.85;;;1.67;;
24357;SDS011;13668;52.154;5.580;2023-09-07T11:14:38;2.30;;;2.10;;
24357;SDS011;13668;52.154;5.580;2023-09-07T11:17:04;2.00;;;1.70;;
24357;SDS011;13668;52.154;5.580;2023-09-07T11:19:33;2.83;;;2.35;;
24357;SDS011;13668;52.154;5.580;2023-09-07T11:22:00;2.30;;;1.98;;
24357;SDS011;13668;52.154;5.580;2023-09-07T11:24:29;3.15;;;1.77;;
24357;SDS011;13668;52.154;5.580;2023-09-07T11:26:55;1.65;;;1.55;;
24357;SDS011;13668;52.154;5.580;2023-09-07T11:29:23;2.10;;;1.90;;
24357;SDS011;13668;52.154;5.580;2023-09-07T11:31:49;2.10;;;2.00;;
24357;SDS011;13668;52.154;5.580;2023-09-07T11:34:15;1.90;;;1.73;;
24357;SDS011;13668;52.154;5.580;2023-09-07T11:36:41;2.60;;;2.00;;
24357;SDS011;13668;52.154;5.580;2023-09-07T11:39:08;2.08;;;1.92;;
24357;SDS011;13668;52.154;5.580;2023-09-07T11:41:43;2.17;;;1.77;;
24357;SDS011;13668;52.154;5.580;2023-09-07T11:44:09;1.98;;;1.88;;
24357;SDS011;13668;52.154;5.580;2023-09-07T11:46:36;2.08;;;1.88;;
24357;SDS011;13668;52.154;5.580;2023-09-07T11:49:02;2.10;;;1.90;;
24357;SDS011;13668;52.154;5.580;2023-09-07T11:51:29;2.28;;;2.13;;
24357;SDS011;13668;52.154;5.580;2023-09-07T11:53:55;2.20;;;2.00;;
24357;SDS011;13668;52.154;5.580;2023-09-07T11:56:21;3.42;;;2.00;;
24357;SDS011;13668;52.154;5.580;2023-09-07T11:58:47;2.20;;;2.00;;
24357;SDS011;13668;52.154;5.580;2023-09-07T12:01:13;2.58;;;2.20;;
24357;SDS011;13668;52.154;5.580;2023-09-07T12:03:41;2.72;;;2.30;;
24357;SDS011;13668;52.154;5.580;2023-09-07T12:06:08;2.28;;;1.67;;
24357;SDS011;13668;52.154;5.580;2023-09-07T12:08:34;2.25;;;1.65;;
24357;SDS011;13668;52.154;5.580;2023-09-07T12:11:00;2.60;;;1.98;;
24357;SDS011;13668;52.154;5.580;2023-09-07T12:13:26;2.10;;;1.88;;
24357;SDS011;13668;52.154;5.580;2023-09-07T12:15:52;2.58;;;2.38;;
24357;SDS011;13668;52.154;5.580;2023-09-07T12:18:18;2.63;;;2.22;;
24357;SDS011;13668;52.154;5.580;2023-09-07T12:20:44;2.03;;;1.83;;
24357;SDS011;13668;52.154;5.580;2023-09-07T12:23:10;2.15;;;1.92;;
24357;SDS011;13668;52.154;5.580;2023-09-07T12:25:36;2.30;;;1.83;;
24357;SDS011;13668;52.154;5.580;2023-09-07T12:28:02;4.63;;;2.08;;
24357;SDS011;13668;52.154;5.580;2023-09-07T12:30:28;2.20;;;2.00;;
24357;SDS011;13668;52.154;5.580;2023-09-07T12:32:54;2.70;;;2.00;;
24357;SDS011;13668;52.154;5.580;2023-09-07T12:35:20;2.53;;;2.00;;
24357;SDS011;13668;52.154;5.580;2023-09-07T12:37:46;2.38;;;1.65;;
24357;SDS011;13668;52.154;5.580;2023-09-07T12:40:12;2.08;;;1.92;;
24357;SDS011;13668;52.154;5.580;2023-09-07T12:42:40;1.92;;;1.77;;
24357;SDS011;13668;52.154;5.580;2023-09-07T12:45:07;5.03;;;1.90;;
24357;SDS011;13668;52.154;5.580;2023-09-07T12:47:33;2.47;;;1.83;;
24357;SDS011;13668;52.154;5.580;2023-09-07T12:49:59;1.45;;;1.35;;
24357;SDS011;13668;52.154;5.580;2023-09-07T12:52:25;3.05;;;1.77;;
24357;SDS011;13668;52.154;5.580;2023-09-07T12:54:51;2.30;;;2.10;;
24357;SDS011;13668;52.154;5.580;2023-09-07T12:57:17;2.58;;;1.88;;
24357;SDS011;13668;52.154;5.580;2023-09-07T12:59:43;3.65;;;2.05;;
24357;SDS011;13668;52.154;5.580;2023-09-07T13:02:09;1.95;;;1.77;;
24357;SDS011;13668;52.154;5.580;2023-09-07T13:04:35;2.05;;;1.85;;
24357;SDS011;13668;52.154;5.580;2023-09-07T13:07:01;2.20;;;2.08;;
24357;SDS011;13668;52.154;5.580;2023-09-07T13:09:28;1.55;;;1.45;;
24357;SDS011;13668;52.154;5.580;2023-09-07T13:11:53;2.00;;;1.80;;
24357;SDS011;13668;52.154;5.580;2023-09-07T13:14:19;1.73;;;1.63;;
24357;SDS011;13668;52.154;5.580;2023-09-07T13:16:45;2.35;;;1.70;;
24357;SDS011;13668;52.154;5.580;2023-09-07T13:19:11;2.13;;;1.92;;
24357;SDS011;13668;52.154;5.580;2023-09-07T13:21:37;2.05;;;1.90;;
24357;SDS011;13668;52.154;5.580;2023-09-07T13:24:03;1.73;;;1.63;;
24357;SDS011;13668;52.154;5.580;2023-09-07T13:26:29;1.75;;;1.63;;
24357;SDS011;13668;52.154;5.580;2023-09-07T13:28:55;1.80;;;1.70;;
24357;SDS011;13668;52.154;5.580;2023-09-07T13:31:21;1.52;;;1.42;;
24357;SDS011;13668;52.154;5.580;2023-09-07T13:33:48;2.13;;;2.00;;
24357;SDS011;13668;52.154;5.580;2023-09-07T13:36:14;3.67;;;1.85;;
24357;SDS011;13668;52.154;5.580;2023-09-07T13:38:42;2.20;;;1.83;;
24357;SDS011;13668;52.154;5.580;2023-09-07T13:41:08;1.98;;;1.80;;
24357;SDS011;13668;52.154;5.580;2023-09-07T13:43:34;2.72;;;2.50;;
24357;SDS011;13668;52.154;5.580;2023-09-07T13:46:00;2.42;;;2.22;;
24357;SDS011;13668;52.154;5.580;2023-09-07T13:48:26;2.42;;;2.20;;
24357;SDS011;13668;52.154;5.580;2023-09-07T13:50:52;1.90;;;1.75;;
24357;SDS011;13668;52.154;5.580;2023-09-07T13:53:18;2.30;;;2.10;;
24357;SDS011;13668;52.154;5.580;2023-09-07T13:55:44;1.83;;;1.60;;
24357;SDS011;13668;52.154;5.580;2023-09-07T13:58:11;2.10;;;1.90;;
24357;SDS011;13668;52.154;5.580;2023-09-07T14:00:37;1.92;;;1.55;;
24357;SDS011;13668;52.154;5.580;2023-09-07T14:03:03;2.45;;;2.25;;
24357;SDS011;13668;52.154;5.580;2023-09-07T14:05:29;2.88;;;2.10;;
24357;SDS011;13668;52.154;5.580;2023-09-07T14:07:55;1.98;;;1.80;;
24357;SDS011;13668;52.154;5.580;2023-09-07T14:10:24;1.98;;;1.77;;
24357;SDS011;13668;52.154;5.580;2023-09-07T14:12:50;2.60;;;2.10;;
24357;SDS011;13668;52.154;5.580;2023-09-07T14:15:16;2.45;;;2.00;;
24357;SDS011;13668;52.154;5.580;2023-09-07T14:17:42;3.00;;;2.22;;
24357;SDS011;13668;52.154;5.580;2023-09-07T14:20:08;2.78;;;2.10;;
24357;SDS011;13668;52.154;5.580;2023-09-07T14:22:34;2.22;;;2.03;;
24357;SDS011;13668;52.154;5.580;2023-09-07T14:25:00;2.13;;;1.98;;
24357;SDS011;13668;52.154;5.580;2023-09-07T14:27:27;2.30;;;2.10;;
24357;SDS011;13668;52.154;5.580;2023-09-07T14:29:53;2.08;;;1.88;;
24357;SDS011;13668;52.154;5.580;2023-09-07T14:32:19;2.03;;;1.92;;
24357;SDS011;13668;52.154;5.580;2023-09-07T14:34:45;1.88;;;1.77;;
24357;SDS011;13668;52.154;5.580;2023-09-07T14:37:11;2.17;;;1.85;;
24357;SDS011;13668;52.154;5.580;2023-09-07T14:39:37;3.13;;;2.30;;
24357;SDS011;13668;52.154;5.580;2023-09-07T14:42:03;2.47;;;1.95;;
24357;SDS011;13668;52.154;5.580;2023-09-07T14:44:36;3.35;;;2.53;;
24357;SDS011;13668;52.154;5.580;2023-09-07T14:47:02;2.13;;;1.92;;